createdAt,value
2022-09-30T00:01:33.938Z,100394.28
2022-09-30T00:04:01.163Z,100397.03
2022-09-30T00:06:29.672Z,100396.63
2022-09-30T00:08:57.801Z,100399.41
2022-09-30T00:11:27.249Z,100395.00
2022-09-30T00:13:53.746Z,100410.41
2022-09-30T00:16:22.607Z,100408.00
2022-09-30T00:18:50.131Z,100420.25
2022-09-30T00:21:17.657Z,100413.13
2022-09-30T00:23:45.149Z,100416.25
2022-09-30T00:26:15.291Z,100423.34
2022-09-30T00:28:43.886Z,100425.22
2022-09-30T00:31:16.076Z,100420.41
2022-09-30T00:33:43.363Z,100419.28
2022-09-30T00:36:11.248Z,100420.84
2022-09-30T00:38:37.719Z,100415.75
2022-09-30T00:41:04.473Z,100424.06
2022-09-30T00:43:53.279Z,100427.59
2022-09-30T00:46:44.878Z,100430.72
2022-09-30T00:49:19.007Z,100420.88
2022-09-30T00:51:50.484Z,100422.03
2022-09-30T00:54:21.840Z,100427.16
2022-09-30T00:56:56.700Z,100427.88
2022-09-30T00:59:27.215Z,100424.72
2022-09-30T01:01:54.302Z,100423.94
2022-09-30T01:04:26.073Z,100410.47
2022-09-30T01:06:52.903Z,100425.44
2022-09-30T01:09:20.166Z,100423.84
2022-09-30T01:11:48.017Z,100422.25
2022-09-30T01:14:21.447Z,100423.81
2022-09-30T01:16:59.220Z,100426.16
2022-09-30T01:19:28.659Z,100426.91
2022-09-30T01:22:13.528Z,100426.91
2022-09-30T01:25:01.407Z,100430.84
2022-09-30T01:27:40.651Z,100415.47
2022-09-30T01:30:22.532Z,100425.22
2022-09-30T01:33:00.947Z,100437.03
2022-09-30T01:35:57.174Z,100435.03
2022-09-30T01:38:28.590Z,100434.56
2022-09-30T01:41:05.735Z,100439.25
2022-09-30T01:44:17.658Z,100431.00
2022-09-30T01:46:51.751Z,100448.97
2022-09-30T01:49:47.410Z,100439.81
2022-09-30T01:52:19.792Z,100432.84
2022-09-30T01:55:06.858Z,100438.41
2022-09-30T01:57:44.976Z,100443.53
2022-09-30T02:00:13.141Z,100429.31
2022-09-30T02:02:58.232Z,100445.50
2022-09-30T02:05:30.790Z,100445.44
2022-09-30T02:08:26.431Z,100444.63
2022-09-30T02:10:59.074Z,100439.84
2022-09-30T02:13:39.975Z,100444.59
2022-09-30T02:16:13.443Z,100434.25
2022-09-30T02:18:54.125Z,100425.97
2022-09-30T02:21:26.187Z,100435.47
2022-09-30T02:23:59.471Z,100440.16
2022-09-30T02:26:30.142Z,100431.88
2022-09-30T02:29:06.388Z,100434.25
2022-09-30T02:31:37.828Z,100439.78
2022-09-30T02:34:08.657Z,100435.06
2022-09-30T02:36:40.770Z,100451.09
2022-09-30T02:39:16.250Z,100445.22
2022-09-30T02:41:52.013Z,100444.38
2022-09-30T02:44:19.646Z,100444.75
2022-09-30T02:47:16.217Z,100438.03
2022-09-30T02:49:56.872Z,100451.38
2022-09-30T02:52:40.405Z,100454.06
2022-09-30T02:55:14.540Z,100447.44
2022-09-30T02:57:46.734Z,100462.78
2022-09-30T03:00:13.864Z,100462.75
2022-09-30T03:02:41.447Z,100463.50
2022-09-30T03:05:09.611Z,100455.19
2022-09-30T03:07:36.687Z,100459.13
2022-09-30T03:10:12.816Z,100456.28
2022-09-30T03:13:05.066Z,100451.88
2022-09-30T03:15:59.360Z,100459.84
2022-09-30T03:18:48.001Z,100461.34
2022-09-30T03:21:36.523Z,100462.06
2022-09-30T03:24:27.478Z,100469.19
2022-09-30T03:27:18.861Z,100471.53
2022-09-30T03:29:57.961Z,100466.78
2022-09-30T03:32:33.365Z,100473.50
2022-09-30T03:35:03.926Z,100475.38
2022-09-30T03:37:45.412Z,100471.59
2022-09-30T03:40:27.630Z,100480.28
2022-09-30T03:43:22.999Z,100478.00
2022-09-30T03:46:02.165Z,100476.09
2022-09-30T03:48:31.905Z,100469.78
2022-09-30T03:51:00.068Z,100475.63
2022-09-30T03:53:28.500Z,100486.19
2022-09-30T03:55:55.104Z,100487.06
2022-09-30T03:58:23.509Z,100490.09
2022-09-30T04:00:52.987Z,100498.78
2022-09-30T04:03:21.815Z,100500.28
2022-09-30T04:05:49.031Z,100497.53
2022-09-30T04:08:16.179Z,100496.72
2022-09-30T04:10:46.275Z,100507.69
2022-09-30T04:13:12.944Z,100513.56
2022-09-30T04:15:40.544Z,100509.25
2022-09-30T04:18:07.496Z,100510.03
2022-09-30T04:20:33.951Z,100515.53
2022-09-30T04:23:01.509Z,100529.25
2022-09-30T04:25:28.696Z,100526.09
2022-09-30T04:27:55.822Z,100533.16
2022-09-30T04:30:25.566Z,100528.84
2022-09-30T04:32:53.811Z,100541.75
2022-09-30T04:35:20.430Z,100538.59
2022-09-30T04:37:47.999Z,100536.63
2022-09-30T04:40:16.316Z,100533.00
2022-09-30T04:42:43.046Z,100536.59
2022-09-30T04:45:11.480Z,100533.47
2022-09-30T04:47:37.898Z,100535.91
2022-09-30T04:50:05.604Z,100539.38
2022-09-30T04:52:32.032Z,100544.03
2022-09-30T04:54:58.730Z,100547.16
2022-09-30T04:57:25.439Z,100541.63
2022-09-30T04:59:51.933Z,100543.06
2022-09-30T05:02:18.421Z,100547.72
2022-09-30T05:04:45.015Z,100533.31
2022-09-30T05:07:11.663Z,100556.56
2022-09-30T05:09:38.191Z,100555.00
2022-09-30T05:12:04.740Z,100566.25
2022-09-30T05:14:31.247Z,100567.78
2022-09-30T05:16:57.702Z,100567.06
2022-09-30T05:19:24.395Z,100559.69
2022-09-30T05:21:52.044Z,100556.59
2022-09-30T05:24:18.705Z,100552.66
2022-09-30T05:26:45.171Z,100554.56
2022-09-30T05:29:11.678Z,100561.63
2022-09-30T05:31:38.223Z,100562.06
2022-09-30T05:34:04.792Z,100566.44
2022-09-30T05:36:31.204Z,100569.59
2022-09-30T05:38:57.627Z,100575.16
2022-09-30T05:41:24.452Z,100583.28
2022-09-30T05:43:51.188Z,100590.66
2022-09-30T05:46:19.372Z,100596.44
2022-09-30T05:48:46.842Z,100597.25
2022-09-30T05:51:13.789Z,100603.03
2022-09-30T05:53:41.197Z,100608.47
2022-09-30T05:56:09.243Z,100610.84
2022-09-30T05:58:37.691Z,100604.19
2022-09-30T06:01:13.211Z,100607.03
2022-09-30T06:03:41.183Z,100595.13
2022-09-30T06:06:07.837Z,100608.16
2022-09-30T06:08:34.689Z,100599.56
2022-09-30T06:11:01.206Z,100602.00
2022-09-30T06:13:28.461Z,100616.34
2022-09-30T06:15:59.386Z,100628.09
2022-09-30T06:18:27.443Z,100626.16
2022-09-30T06:21:02.011Z,100626.28
2022-09-30T06:23:32.684Z,100615.75
2022-09-30T06:25:59.122Z,100634.34
2022-09-30T06:28:25.884Z,100619.88
2022-09-30T06:30:52.283Z,100626.75
2022-09-30T06:33:18.854Z,100637.06
2022-09-30T06:35:47.365Z,100634.25
2022-09-30T06:38:17.308Z,100633.63
2022-09-30T06:40:44.810Z,100645.16
2022-09-30T06:43:11.575Z,100638.06
2022-09-30T06:45:38.415Z,100648.81
2022-09-30T06:48:08.721Z,100647.34
2022-09-30T06:50:36.032Z,100653.75
2022-09-30T06:53:08.320Z,100667.22
2022-09-30T06:55:39.259Z,100673.22
2022-09-30T06:58:14.556Z,100667.81
2022-09-30T07:00:41.000Z,100661.25
2022-09-30T07:03:15.728Z,100665.66
2022-09-30T07:05:42.136Z,100661.88
2022-09-30T07:08:10.582Z,100670.66
2022-09-30T07:10:38.140Z,100671.94
2022-09-30T07:13:04.601Z,100671.22
2022-09-30T07:15:31.110Z,100670.97
2022-09-30T07:17:57.611Z,100671.91
2022-09-30T07:20:24.645Z,100683.84
2022-09-30T07:22:51.255Z,100663.84
2022-09-30T07:25:18.024Z,100675.53
2022-09-30T07:27:44.920Z,100671.75
2022-09-30T07:30:18.111Z,100671.47
2022-09-30T07:32:50.092Z,100673.53
2022-09-30T07:35:16.660Z,100673.59
2022-09-30T07:37:43.107Z,100674.13
2022-09-30T07:40:10.030Z,100679.66
2022-09-30T07:42:45.363Z,100683.66
2022-09-30T07:45:19.212Z,100689.25
2022-09-30T07:47:49.656Z,100672.72
2022-09-30T07:50:19.137Z,100683.81
2022-09-30T07:52:45.689Z,100685.41
2022-09-30T07:55:12.170Z,100683.06
2022-09-30T07:57:38.573Z,100671.63
2022-09-30T08:00:29.761Z,100693.78
2022-09-30T08:02:53.343Z,100688.63
2022-09-30T08:05:19.756Z,100686.66
2022-09-30T08:07:46.216Z,100686.66
2022-09-30T08:10:12.749Z,100691.78
2022-09-30T08:12:39.173Z,100693.72
2022-09-30T08:15:09.557Z,100687.78
2022-09-30T08:17:36.011Z,100685.34
2022-09-30T08:20:02.481Z,100684.13
2022-09-30T08:22:28.896Z,100691.97
2022-09-30T08:24:55.331Z,100694.28
2022-09-30T08:27:21.831Z,100676.75
2022-09-30T08:29:59.119Z,100695.75
2022-09-30T08:32:30.587Z,100684.50
2022-09-30T08:34:57.024Z,100687.28
2022-09-30T08:37:24.114Z,100692.72
2022-09-30T08:39:50.625Z,100686.66
2022-09-30T08:42:42.470Z,100687.38
2022-09-30T08:45:35.907Z,100682.47
2022-09-30T08:48:08.919Z,100693.00
2022-09-30T08:50:46.863Z,100694.50
2022-09-30T08:53:24.197Z,100692.38
2022-09-30T08:55:54.505Z,100694.66
2022-09-30T08:58:28.515Z,100694.94
2022-09-30T09:00:59.333Z,100696.06
2022-09-30T09:03:29.779Z,100693.91
2022-09-30T09:05:56.607Z,100699.78
2022-09-30T09:08:26.076Z,100700.34
2022-09-30T09:11:07.329Z,100698.06
2022-09-30T09:14:00.716Z,100703.41
2022-09-30T09:16:30.174Z,100697.44
2022-09-30T09:19:05.674Z,100689.56
2022-09-30T09:21:44.176Z,100694.88
2022-09-30T09:24:21.109Z,100696.03
2022-09-30T09:26:49.018Z,100699.72
2022-09-30T09:29:48.168Z,100694.91
2022-09-30T09:32:17.716Z,100691.47
2022-09-30T09:34:50.572Z,100685.88
2022-09-30T09:38:03.167Z,100700.63
2022-09-30T09:41:23.822Z,100698.19
2022-09-30T09:43:55.745Z,100700.47
2022-09-30T09:46:29.516Z,100699.69
2022-09-30T09:49:28.300Z,100700.41
2022-09-30T09:52:11.619Z,100702.84
2022-09-30T09:54:51.292Z,100699.31
2022-09-30T09:57:24.768Z,100695.50
2022-09-30T10:00:25.167Z,100706.25
2022-09-30T10:03:01.996Z,100707.91
2022-09-30T10:05:30.240Z,100699.44
2022-09-30T10:08:22.947Z,100699.03
2022-09-30T10:11:20.586Z,100690.00
2022-09-30T10:13:47.337Z,100691.91
2022-09-30T10:16:25.815Z,100679.69
2022-09-30T10:18:52.464Z,100685.59
2022-09-30T10:21:24.581Z,100684.41
2022-09-30T10:23:51.146Z,100682.19
2022-09-30T10:26:24.207Z,100678.25
2022-09-30T10:28:56.452Z,100685.81
2022-09-30T10:31:36.420Z,100674.06
2022-09-30T10:34:14.743Z,100690.91
2022-09-30T10:36:43.398Z,100690.16
2022-09-30T10:39:26.755Z,100687.88
2022-09-30T10:42:08.542Z,100686.75
2022-09-30T10:44:46.935Z,100688.28
2022-09-30T10:47:18.180Z,100676.72
2022-09-30T10:49:59.771Z,100680.13
2022-09-30T10:52:32.404Z,100679.28
2022-09-30T10:55:09.083Z,100679.31
2022-09-30T10:57:40.332Z,100679.75
2022-09-30T11:00:14.778Z,100681.56
2022-09-30T11:02:53.170Z,100687.94
2022-09-30T11:05:33.711Z,100689.53
2022-09-30T11:08:18.420Z,100696.53
2022-09-30T11:11:07.212Z,100697.84
2022-09-30T11:13:57.377Z,100689.97
2022-09-30T11:16:36.088Z,100704.84
2022-09-30T11:19:05.579Z,100708.94
2022-09-30T11:21:54.033Z,100705.34
2022-09-30T11:24:38.310Z,100703.69
2022-09-30T11:27:04.705Z,100714.78
2022-09-30T11:29:53.501Z,100704.50
2022-09-30T11:32:36.365Z,100704.00
2022-09-30T11:35:22.997Z,100704.59
2022-09-30T11:38:02.150Z,100693.41
2022-09-30T11:41:03.748Z,100702.28
2022-09-30T11:43:41.982Z,100704.72
2022-09-30T11:46:25.735Z,100704.13
2022-09-30T11:49:11.255Z,100699.31
2022-09-30T11:52:03.374Z,100698.38
2022-09-30T11:54:38.679Z,100703.41
2022-09-30T11:57:14.163Z,100697.66
2022-09-30T11:59:54.414Z,100698.88
2022-09-30T12:02:40.447Z,100686.22
2022-09-30T12:05:28.612Z,100687.13
2022-09-30T12:08:03.408Z,100683.19
2022-09-30T12:10:36.058Z,100672.03
2022-09-30T12:13:18.808Z,100682.41
2022-09-30T12:15:47.212Z,100674.44
2022-09-30T12:18:19.132Z,100674.97
2022-09-30T12:20:55.515Z,100672.69
2022-09-30T12:23:32.599Z,100668.19
2022-09-30T12:26:03.761Z,100672.38
2022-09-30T12:28:51.895Z,100670.13
2022-09-30T12:31:21.115Z,100659.09
2022-09-30T12:34:31.171Z,100646.38
2022-09-30T12:37:20.839Z,100640.03
2022-09-30T12:40:03.774Z,100644.06
2022-09-30T12:42:59.414Z,100637.97
2022-09-30T12:45:29.598Z,100639.00
2022-09-30T12:47:58.640Z,100627.69
2022-09-30T12:50:34.278Z,100643.47
2022-09-30T12:53:16.143Z,100624.63
2022-09-30T12:55:42.994Z,100632.22
2022-09-30T12:58:28.511Z,100627.91
2022-09-30T13:01:08.325Z,100627.66
2022-09-30T13:03:59.225Z,100622.00
2022-09-30T13:06:44.936Z,100621.56
2022-09-30T13:09:11.383Z,100625.03
2022-09-30T13:11:40.989Z,100625.34
2022-09-30T13:14:43.478Z,100617.09
2022-09-30T13:17:13.203Z,100610.91
2022-09-30T13:19:45.698Z,100593.88
2022-09-30T13:22:18.135Z,100608.03
2022-09-30T13:25:12.137Z,100612.50
2022-09-30T13:27:41.565Z,100602.69
2022-09-30T13:30:17.122Z,100602.69
2022-09-30T13:32:50.771Z,100608.16
2022-09-30T13:35:37.504Z,100594.06
2022-09-30T13:38:16.105Z,100596.72
2022-09-30T13:41:05.506Z,100609.06
2022-09-30T13:43:38.215Z,100598.28
2022-09-30T13:46:17.969Z,100598.19
2022-09-30T13:49:00.587Z,100586.44
2022-09-30T13:51:32.819Z,100596.97
2022-09-30T13:54:08.446Z,100604.19
2022-09-30T13:56:39.969Z,100592.41
2022-09-30T13:59:43.933Z,100596.66
2022-09-30T14:02:33.735Z,100598.00
2022-09-30T14:05:35.101Z,100589.09
2022-09-30T14:08:24.609Z,100583.81
2022-09-30T14:11:36.129Z,100575.56
2022-09-30T14:14:24.820Z,100577.84
2022-09-30T14:17:25.211Z,100569.13
2022-09-30T14:19:58.311Z,100571.97
2022-09-30T14:22:30.088Z,100574.28
2022-09-30T14:24:57.743Z,100571.53
2022-09-30T14:27:29.927Z,100570.25
2022-09-30T14:30:05.718Z,100568.22
2022-09-30T14:33:06.636Z,100563.38
2022-09-30T14:35:35.704Z,100574.78
2022-09-30T14:38:07.141Z,100561.38
2022-09-30T14:40:36.803Z,100547.09
2022-09-30T14:43:06.630Z,100559.16
2022-09-30T14:45:37.668Z,100552.25
2022-09-30T14:48:22.889Z,100553.38
2022-09-30T14:51:05.644Z,100547.03
2022-09-30T14:53:35.001Z,100549.28
2022-09-30T14:56:04.941Z,100547.78
2022-09-30T14:58:39.911Z,100543.25
2022-09-30T15:01:20.998Z,100549.34
2022-09-30T15:03:53.382Z,100545.63
2022-09-30T15:06:23.309Z,100542.56
2022-09-30T15:08:51.342Z,100548.81
2022-09-30T15:11:28.104Z,100537.59
2022-09-30T15:14:07.475Z,100538.03
2022-09-30T15:16:34.558Z,100529.00
2022-09-30T15:19:01.438Z,100539.88
2022-09-30T15:21:31.321Z,100539.41
2022-09-30T15:24:00.669Z,100536.16
2022-09-30T15:26:27.758Z,100527.38
2022-09-30T15:28:54.801Z,100520.84
2022-09-30T15:31:28.461Z,100526.91
2022-09-30T15:34:21.890Z,100523.97
2022-09-30T15:37:00.342Z,100533.53
2022-09-30T15:39:48.418Z,100537.66
2022-09-30T15:42:30.342Z,100532.75
2022-09-30T15:44:59.308Z,100532.00
2022-09-30T15:47:27.530Z,100520.84
2022-09-30T15:49:55.338Z,100520.84
2022-09-30T15:52:29.340Z,100524.09
2022-09-30T15:54:57.093Z,100528.25
2022-09-30T15:57:47.291Z,100526.47
2022-09-30T16:00:35.328Z,100520.19
2022-09-30T16:03:17.104Z,100523.53
2022-09-30T16:05:44.905Z,100524.84
2022-09-30T16:08:23.047Z,100525.50
2022-09-30T16:10:56.094Z,100527.75
2022-09-30T16:13:25.626Z,100528.53
2022-09-30T16:15:57.561Z,100531.03
2022-09-30T16:18:31.312Z,100529.69
2022-09-30T16:21:03.271Z,100530.50
2022-09-30T16:23:38.281Z,100533.75
2022-09-30T16:26:28.747Z,100535.47
2022-09-30T16:28:56.300Z,100542.31
2022-09-30T16:31:24.205Z,100537.72
2022-09-30T16:33:50.822Z,100534.50
2022-09-30T16:36:17.350Z,100539.84
2022-09-30T16:38:43.837Z,100538.97
2022-09-30T16:41:13.021Z,100547.53
2022-09-30T16:43:40.144Z,100531.13
2022-09-30T16:46:07.151Z,100537.28
2022-09-30T16:48:35.016Z,100541.72
2022-09-30T16:51:16.871Z,100542.38
2022-09-30T16:53:43.968Z,100528.75
2022-09-30T16:56:15.376Z,100542.50
2022-09-30T16:58:42.843Z,100541.03
2022-09-30T17:01:18.752Z,100536.09
2022-09-30T17:03:46.419Z,100527.72
2022-09-30T17:06:14.423Z,100540.31
2022-09-30T17:08:41.379Z,100529.53
2022-09-30T17:11:07.848Z,100535.75
2022-09-30T17:13:35.584Z,100520.38
2022-09-30T17:16:02.103Z,100532.53
2022-09-30T17:18:28.571Z,100527.94
2022-09-30T17:20:55.873Z,100514.84
2022-09-30T17:23:24.181Z,100535.25
2022-09-30T17:25:51.975Z,100527.06
2022-09-30T17:28:18.509Z,100529.19
2022-09-30T17:30:47.909Z,100544.25
2022-09-30T17:33:15.266Z,100540.44
2022-09-30T17:35:41.744Z,100527.66
2022-09-30T17:38:12.706Z,100537.84
2022-09-30T17:40:58.767Z,100536.59
2022-09-30T17:43:25.229Z,100528.84
2022-09-30T17:45:52.387Z,100520.94
2022-09-30T17:48:18.959Z,100519.03
2022-09-30T17:50:48.483Z,100515.53
2022-09-30T17:53:19.396Z,100521.72
2022-09-30T17:55:47.967Z,100517.50
2022-09-30T17:58:19.183Z,100522.72
2022-09-30T18:00:46.800Z,100517.13
2022-09-30T18:03:13.508Z,100528.47
2022-09-30T18:05:40.041Z,100529.78
2022-09-30T18:08:06.606Z,100513.47
2022-09-30T18:10:37.109Z,100507.75
2022-09-30T18:13:03.662Z,100511.31
2022-09-30T18:15:30.165Z,100504.69
2022-09-30T18:17:56.961Z,100504.59
2022-09-30T18:20:25.541Z,100505.44
2022-09-30T18:22:52.336Z,100504.38
2022-09-30T18:25:22.592Z,100503.69
2022-09-30T18:27:59.190Z,100505.03
2022-09-30T18:30:26.797Z,100507.75
2022-09-30T18:32:54.424Z,100509.69
2022-09-30T18:35:24.498Z,100513.59
2022-09-30T18:37:53.073Z,100511.63
2022-09-30T18:40:22.566Z,100509.31
2022-09-30T18:42:56.249Z,100513.84
2022-09-30T18:45:23.973Z,100520.72
2022-09-30T18:47:55.341Z,100524.97
2022-09-30T18:50:23.164Z,100518.66
2022-09-30T18:52:51.247Z,100510.81
2022-09-30T18:55:18.310Z,100528.59
2022-09-30T18:57:48.264Z,100521.09
2022-09-30T19:00:16.795Z,100519.63
2022-09-30T19:02:44.692Z,100520.84
2022-09-30T19:05:12.887Z,100520.03
2022-09-30T19:07:39.400Z,100516.97
2022-09-30T19:10:10.204Z,100514.25
2022-09-30T19:12:37.982Z,100510.00
2022-09-30T19:15:06.931Z,100509.00
2022-09-30T19:17:33.699Z,100496.50
2022-09-30T19:20:00.747Z,100490.72
2022-09-30T19:22:28.323Z,100498.81
2022-09-30T19:24:54.977Z,100494.56
2022-09-30T19:27:26.238Z,100497.41
2022-09-30T19:29:58.535Z,100495.91
2022-09-30T19:32:26.494Z,100477.03
2022-09-30T19:35:05.441Z,100480.97
2022-09-30T19:37:33.072Z,100473.06
2022-09-30T19:40:08.445Z,100475.13
2022-09-30T19:42:42.639Z,100461.28
2022-09-30T19:45:09.217Z,100479.91
2022-09-30T19:47:36.537Z,100474.81
2022-09-30T19:50:04.109Z,100483.72
2022-09-30T19:52:30.548Z,100471.81
2022-09-30T19:55:05.394Z,100469.88
2022-09-30T19:57:37.686Z,100473.56
2022-09-30T20:00:05.516Z,100467.50
2022-09-30T20:02:32.388Z,100465.69
2022-09-30T20:05:00.474Z,100470.75
2022-09-30T20:07:28.176Z,100469.22
2022-09-30T20:09:54.705Z,100464.16
2022-09-30T20:12:21.203Z,100462.91
2022-09-30T20:15:06.431Z,100467.34
2022-09-30T20:17:32.938Z,100468.19
2022-09-30T20:20:18.050Z,100462.34
2022-09-30T20:22:44.531Z,100463.84
2022-09-30T20:25:11.204Z,100469.97
2022-09-30T20:27:40.312Z,100472.84
2022-09-30T20:30:07.154Z,100460.56
2022-09-30T20:32:33.614Z,100468.06
2022-09-30T20:35:00.120Z,100460.56
2022-09-30T20:37:26.650Z,100445.94
2022-09-30T20:39:53.111Z,100445.94
2022-09-30T20:42:19.558Z,100445.91
2022-09-30T20:44:46.069Z,100445.06
2022-09-30T20:47:12.596Z,100433.56
2022-09-30T20:49:39.078Z,100427.59
2022-09-30T20:52:06.023Z,100434.72
2022-09-30T20:54:35.384Z,100427.06
2022-09-30T20:57:07.232Z,100431.28
2022-09-30T20:59:33.963Z,100431.69
2022-09-30T21:02:00.492Z,100428.56
2022-09-30T21:04:27.018Z,100420.59
2022-09-30T21:06:53.510Z,100431.94
2022-09-30T21:09:19.969Z,100427.09
2022-09-30T21:11:46.436Z,100417.44
2022-09-30T21:14:15.877Z,100418.94
2022-09-30T21:16:42.420Z,100417.53
2022-09-30T21:19:10.271Z,100402.72
2022-09-30T21:21:36.702Z,100404.28
2022-09-30T21:24:03.241Z,100406.13
2022-09-30T21:26:30.009Z,100396.94
2022-09-30T21:28:56.468Z,100388.69
2022-09-30T21:31:27.535Z,100391.75
2022-09-30T21:33:56.522Z,100396.50
2022-09-30T21:36:24.170Z,100387.97
2022-09-30T21:38:51.360Z,100384.53
2022-09-30T21:41:19.563Z,100379.66
2022-09-30T21:43:46.996Z,100383.53
2022-09-30T21:46:15.392Z,100385.59
2022-09-30T21:48:42.542Z,100361.84
2022-09-30T21:51:09.994Z,100370.00
2022-09-30T21:53:36.941Z,100371.63
2022-09-30T21:56:03.928Z,100359.63
2022-09-30T21:58:31.989Z,100357.56
2022-09-30T22:01:04.362Z,100356.13
2022-09-30T22:03:39.416Z,100362.78
2022-09-30T22:06:07.989Z,100357.44
2022-09-30T22:08:39.912Z,100359.84
2022-09-30T22:11:12.845Z,100345.50
2022-09-30T22:13:42.093Z,100355.81
2022-09-30T22:16:08.978Z,100351.72
2022-09-30T22:18:36.183Z,100351.38
2022-09-30T22:21:13.813Z,100352.91
2022-09-30T22:23:40.821Z,100345.72
2022-09-30T22:26:12.775Z,100330.31
2022-09-30T22:28:39.892Z,100334.19
2022-09-30T22:31:13.846Z,100334.88
2022-09-30T22:33:59.328Z,100334.97
2022-09-30T22:36:44.223Z,100328.78
2022-09-30T22:39:11.244Z,100321.84
2022-09-30T22:41:38.289Z,100336.97
2022-09-30T22:44:05.156Z,100321.69
2022-09-30T22:46:36.047Z,100333.31
2022-09-30T22:49:03.659Z,100319.16
2022-09-30T22:51:32.648Z,100295.91
2022-09-30T22:54:01.012Z,100309.69
2022-09-30T22:56:27.885Z,100298.78
2022-09-30T22:58:54.331Z,100314.25
2022-09-30T23:01:20.850Z,100302.88
2022-09-30T23:03:48.457Z,100285.31
2022-09-30T23:06:14.923Z,100299.25
2022-09-30T23:08:41.722Z,100297.31
2022-09-30T23:11:10.891Z,100271.91
2022-09-30T23:13:38.307Z,100278.53
2022-09-30T23:16:06.516Z,100279.13
2022-09-30T23:18:34.158Z,100271.41
2022-09-30T23:21:05.963Z,100268.06
2022-09-30T23:23:33.897Z,100273.81
2022-09-30T23:26:04.708Z,100256.94
2022-09-30T23:28:32.402Z,100252.59
2022-09-30T23:31:05.088Z,100256.44
2022-09-30T23:33:31.519Z,100243.47
2022-09-30T23:36:01.196Z,100244.84
2022-09-30T23:38:28.565Z,100228.59
2022-09-30T23:41:00.986Z,100233.03
2022-09-30T23:43:32.345Z,100225.56
2022-09-30T23:45:58.951Z,100222.47
2022-09-30T23:48:25.864Z,100209.47
2022-09-30T23:50:53.078Z,100210.31
2022-09-30T23:53:21.748Z,100207.88
2022-09-30T23:55:56.399Z,100198.56
2022-09-30T23:58:24.200Z,100194.81
